首页
METAR-TAF:

METAR-TAF

机场 :

RAF

Spadeadam, 英格兰

纬度: 55-03N, 经度: 002-33W, 海拔: 325米

当前天气观测

该预报发布于46分钟前的23:50 UTC
风速2节,风向东南
温度 0°C
湿度 93%
气压 1011 hPa
能见度10公里或以上

METAR: EGOM 072350Z AUTO 14002KT 9999 NCD M00/M01 Q1011

时间: 01:36 (00:36 UTC)


TAF: 丢失

超过4000个机场的气象观测和天气预报(METAR&TAF报告)。

可查询的气象台以黄色和红色小点在地图上表示。

将鼠标移到小点上方,可查看气象台名称。

然后点击查看天气观测和预报。

如需切换地图:点击带黑十字的绿色按钮放大地图;点击带横线的绿色按钮缩小地图;或者点击绿色箭头查看邻近地区的地图。


METAR-TAF: